West Alpine (356) Station Data

Red Flag Warning: No
Fire Weather Zone: 250
SDGE Region: Eastern
Lat/Lon: 32.83/-116.799

Observations

Time Wind Speed/Gust Temp(F) RH Fuel Moist Fuel Temp(F) Dewpt(F) Tmax(F) Tmin(F) Accum Precip 10-min Precip SL Press(mb)
5/24 8:30am 277 5 G 10 63° 64% - - 51° 64.7° 53.9° - - -
5/24 8:20am 279 2 G 6 63° 66% - - 51° 64.7° 53.9° - - -
5/24 8:10am 38 2 G 4 62° 69% - - 51° 64.7° 53.9° - - -
5/24 8:00am 30 2 G 5 61° 69% - - 51° 64.7° 53.9° - - -
5/24 7:50am 72 1 G 3 60° 73% - - 51° 64.7° 53.9° - - -
5/24 7:40am 55 2 G 3 61° 69% - - 50° 64.7° 53.9° - - -
5/24 7:30am 201 1 G 2 60° 66% - - 49° 64.7° 53.9° - - -
5/24 7:20am 98 2 G 6 59° 73% - - 50° 64.7° 53.9° - - -
5/24 7:10am 78 3 G 5 57° 78% - - 50° 64.7° 53.9° - - -
5/24 7:00am 84 3 G 6 56° 81% - - 50° 64.7° 53.9° - - -
5/24 6:50am 254 2 G 9 56° 80% - - 50° 64.7° 53.9° - - -
5/24 6:40am 210 4 G 10 56° 74% - - 48° 64.7° 53.9° - - -
5/24 6:30am 2 1 G 6 58° 59% - - 44° 64.7° 53.9° - - -
5/24 6:20am 301 3 G 5 62° 44% - - 39° 64.7° 53.9° - - -
5/24 6:10am 244 4 G 8 63° 38% - - 37° 64.7° 53.9° - - -
5/24 6:00am 114 1 G 2 63° 38% - - 37° 64.7° 53.9° - - -
5/24 5:50am 104 1 G 2 60° 47% - - 40° 64.7° 53.9° - - -
5/24 5:40am 111 0 G 1 59° 57% - - 43° 64.7° 53.9° - - -
5/24 5:30am 252 1 G 2 58° 59% - - 44° 64.7° 53.9° - - -
5/24 5:20am 286 1 G 2 60° 49% - - 41° 64.7° 53.9° - - -
5/24 5:10am 77 0 G 2 60° 50% - - 42° 64.7° 53.9° - - -
5/24 5:00am 79 2 G 3 61° 54% - - 44° 64.7° 53.9° - - -
5/24 4:50am 120 2 G 3 57° 68% - - 47° 64.7° 53.9° - - -
5/24 4:40am 123 2 G 3 55° 82% - - 49° 64.7° 53.9° - - -
5/24 4:30am 78 1 G 2 55° 82% - - 49° 64.7° 54° - - -
5/24 4:20am 81 0 G 1 55° 81% - - 50° 64.7° 54.7° - - -
5/24 4:10am 87 0 G 1 56° 80% - - 50° 64.7° 55.4° - - -
5/24 4:00am 277 0 G 1 56° 78% - - 49° 64.7° 55.6° - - -
5/24 3:50am 131 0 G 1 57° 77% - - 49° 64.7° 56.1° - - -
5/24 3:40am 55 0 G 2 57° 74% - - 49° 64.7° 56.9° - - -
5/24 3:30am 104 1 G 2 58° 72% - - 49° 64.7° 57.5° - - -
5/24 3:20am 90 1 G 2 59° 69% - - 49° 64.7° 57.9° - - -
5/24 3:10am 322 2 G 4 60° 65% - - 49° 64.7° 59.4° - - -
5/24 3:00am 176 0 G 1 60° 67% - - 49° 64.7° 59.7° - - -
5/24 2:50am 287 0 G 1 61° 68% - - 50° 64.7° 60.2° - - -
5/24 2:40am 277 1 G 2 62° 66% - - 50° 64.7° 61° - - -
5/24 2:30am 257 1 G 3 63° 62% - - 50° 64.7° 61.6° - - -
5/24 2:20am 0 0 G 0 63° 61% - - 49° 64.7° 61.6° - - -
5/24 2:10am 330 0 G 1 63° 60% - - 49° 64.7° 61.6° - - -
5/24 2:00am 252 0 G 1 63° 62% - - 50° 64.7° 61.6° - - -
5/24 1:50am 0 0 G 0 64° 63% - - 51° 64.7° 61.6° - - -
5/24 1:40am 255 0 G 2 64° 63% - - 51° 64.7° 61.6° - - -
5/24 1:30am 225 0 G 2 64° 64% - - 51° 64.7° 61.6° - - -
5/24 1:20am 0 0 G 0 62° 67% - - 51° 64.7° 61.6° - - -
5/24 1:10am 63 0 G 2 62° 67% - - 51° 64.7° 61.6° - - -
5/24 1:00am 0 0 G 0 62° 69% - - 52° 64.7° 61.9° - - -
5/24 12:50am 265 1 G 3 63° 68% - - 52° 64.7° 62.3° - - -
5/24 12:40am 178 2 G 4 64° 63% - - 51° 64.7° 63.2° - - -
5/24 12:30am 128 2 G 4 64° 65% - - 52° 64.6° 63.2° - - -
5/24 12:20am 105 2 G 3 64° 67% - - 52° 64.6° 63.2° - - -
5/24 12:10am 87 2 G 3 64° 66% - - 52° 64.6° 63.4° - - -
5/24 12:00am 62 0 G 1 65° 64% - - 53° 87.1° 59.9° - - -
5/23 11:50pm 0 0 G 0 65° 63% - - 52° 87.1° 59.9° - - -
5/23 11:40pm 252 2 G 3 66° 62% - - 53° 87.1° 59.9° - - -
5/23 11:30pm 257 1 G 3 67° 61% - - 53° 87.1° 59.9° - - -
5/23 11:20pm 0 0 G 0 67° 61% - - 53° 87.1° 59.9° - - -
5/23 11:10pm 107 0 G 2 67° 61% - - 53° 87.1° 59.9° - - -
5/23 11:00pm 94 1 G 2 67° 61% - - 53° 87.1° 59.9° - - -
5/23 10:50pm 65 0 G 1 67° 60% - - 53° 87.1° 59.9° - - -
5/23 10:40pm 124 0 G 1 68° 59% - - 53° 87.1° 59.9° - - -
5/23 10:30pm 124 0 G 1 68° 58% - - 53° 87.1° 59.9° - - -
5/23 10:20pm 116 1 G 2 68° 58% - - 53° 87.1° 59.9° - - -
5/23 10:10pm 134 1 G 2 68° 58% - - 53° 87.1° 59.9° - - -
5/23 10:00pm 158 1 G 2 68° 58% - - 53° 87.1° 59.9° - - -
5/23 9:50pm 128 1 G 3 68° 58% - - 53° 87.1° 59.9° - - -
5/23 9:40pm 140 1 G 2 68° 57% - - 53° 87.1° 59.9° - - -
5/23 9:30pm 90 0 G 1 69° 56% - - 53° 87.1° 59.9° - - -
5/23 9:20pm 268 0 G 1 69° 55% - - 53° 87.1° 59.9° - - -
5/23 9:10pm 308 0 G 0 69° 55% - - 52° 87.1° 59.9° - - -
5/23 9:00pm 53 0 G 1 70° 54% - - 52° 87.1° 59.9° - - -
5/23 8:50pm 229 0 G 3 71° 53% - - 53° 87.1° 59.9° - - -
5/23 8:40pm 231 3 G 4 71° 52% - - 53° 87.1° 59.9° - - -
5/23 8:30pm 229 3 G 4 71° 51% - - 52° 87.1° 59.9° - - -
5/23 8:20pm 235 2 G 4 72° 51% - - 53° 87.1° 59.9° - - -
5/23 8:10pm 237 2 G 4 72° 50% - - 53° 87.1° 59.9° - - -
5/23 8:00pm 242 3 G 4 73° 49% - - 53° 87.1° 59.9° - - -
5/23 7:50pm 256 3 G 4 74° 48% - - 53° 87.1° 59.9° - - -
5/23 7:40pm 244 2 G 4 75° 45% - - 52° 87.1° 59.9° - - -
5/23 7:30pm 253 2 G 4 75° 44% - - 52° 87.1° 59.9° - - -
5/23 7:20pm 253 3 G 4 76° 42% - - 52° 87.1° 59.9° - - -
5/23 7:10pm 252 3 G 6 77° 41% - - 51° 87.1° 59.9° - - -
5/23 7:00pm 253 3 G 5 77° 40% - - 51° 87.1° 59.9° - - -
5/23 6:50pm 248 3 G 5 78° 40% - - 51° 87.1° 59.9° - - -
5/23 6:40pm 231 3 G 8 77° 40% - - 51° 87.1° 59.9° - - -
5/23 6:30pm 232 5 G 11 78° 39% - - 51° 87.1° 59.9° - - -
5/23 6:20pm 238 4 G 12 79° 38% - - 51° 87.1° 59.9° - - -
5/23 6:10pm 218 5 G 10 80° 35% - - 50° 87.1° 59.9° - - -
5/23 6:00pm 247 6 G 12 82° 29% - - 47° 87.1° 59.9° - - -
5/23 5:50pm 271 6 G 10 83° 27% - - 46° 87.1° 59.9° - - -
5/23 5:40pm 275 6 G 10 84° 28% - - 47° 87.1° 59.9° - - -
5/23 5:30pm 275 6 G 9 83° 29% - - 48° 87.1° 59.9° - - -
5/23 5:20pm 269 5 G 10 83° 30% - - 48° 87.1° 59.9° - - -
5/23 5:10pm 271 5 G 8 83° 30% - - 49° 87.1° 59.9° - - -
5/23 5:00pm 302 2 G 6 84° 30% - - 49° 87.1° 59.9° - - -
5/23 4:50pm 294 4 G 8 83° 30% - - 49° 87.1° 59.9° - - -
5/23 4:40pm 303 3 G 7 84° 30% - - 49° 87.1° 59.9° - - -
5/23 4:30pm 278 5 G 9 83° 30% - - 48° 87.1° 59.9° - - -
5/23 4:20pm 298 3 G 9 83° 28% - - 47° 87.1° 59.9° - - -
5/23 4:10pm 291 5 G 11 82° 27% - - 45° 87.1° 59.9° - - -
5/23 4:00pm 283 5 G 10 82° 28% - - 46° 87.1° 59.9° - - -
5/23 3:50pm 281 4 G 9 82° 31% - - 48° 87.1° 59.9° - - -
5/23 3:40pm 281 4 G 9 82° 33% - - 49° 87.1° 59.9° - - -
5/23 3:30pm 242 6 G 12 81° 34% - - 50° 87.1° 59.9° - - -
5/23 3:20pm 256 5 G 9 80° 38% - - 51° 87.1° 59.9° - - -
5/23 3:10pm 261 6 G 10 79° 41% - - 53° 87.1° 59.9° - - -
5/23 3:00pm 245 5 G 10 79° 42% - - 54° 87.1° 59.9° - - -
5/23 2:50pm 248 8 G 13 78° 43% - - 54° 87.1° 59.9° - - -
5/23 2:40pm 251 7 G 12 78° 43% - - 54° 87.1° 59.9° - - -
5/23 2:30pm 258 7 G 14 77° 45% - - 54° 87.1° 59.9° - - -
5/23 2:20pm 262 8 G 15 77° 45% - - 54° 87.1° 59.9° - - -
5/23 2:10pm 265 9 G 15 77° 45% - - 55° 87.1° 59.9° - - -
5/23 2:00pm 256 9 G 14 78° 44% - - 55° 87.1° 59.9° - - -
5/23 1:50pm 256 8 G 14 78° 44% - - 55° 87.1° 59.9° - - -
5/23 1:40pm 263 9 G 14 79° 44% - - 55° 87.1° 59.9° - - -
5/23 1:30pm 250 8 G 12 79° 43% - - 55° 87.1° 59.9° - - -
5/23 1:20pm 254 9 G 15 79° 43% - - 54° 87.1° 59.9° - - -
5/23 1:10pm 261 7 G 14 79° 42% - - 54° 87.1° 59.9° - - -
5/23 1:00pm 254 9 G 17 79° 42% - - 54° 87.1° 59.9° - - -
5/23 12:50pm 256 9 G 17 80° 40% - - 54° 87.1° 59.9° - - -
5/23 12:40pm 257 11 G 18 80° 38% - - 53° 87.1° 59.9° - - -
5/23 12:30pm 261 10 G 15 81° 37% - - 52° 87.1° 59.9° - - -
5/23 12:20pm 257 10 G 15 82° 35% - - 52° 87.1° 59.9° - - -
5/23 12:10pm 241 8 G 15 85° 26% - - 46° 87.1° 59.9° - - -
5/23 12:00pm 257 7 G 10 85° 20% - - 40° 87.1° 59.9° - - -
5/23 11:50am 265 7 G 12 85° 21% - - 40° 87.1° 59.9° - - -
5/23 11:40am 266 10 G 15 84° 22% - - 41° 87.1° 59.9° - - -
5/23 11:30am 258 8 G 16 85° 24% - - 45° 87.1° 59.9° - - -
5/23 11:20am 228 7 G 14 85° 25% - - 45° 87.1° 59.9° - - -
5/23 11:10am 246 7 G 11 86° 21% - - 41° 87.1° 59.9° - - -
5/23 11:00am 256 6 G 10 86° 20% - - 41° 87.1° 59.9° - - -
5/23 10:50am 265 4 G 8 86° 18% - - 38° 87.1° 59.9° - - -
5/23 10:40am 280 4 G 7 86° 18% - - 38° 87.1° 59.9° - - -
5/23 10:30am 281 2 G 6 85° 19% - - 38° 85.9° 59.9° - - -
5/23 10:20am 296 3 G 5 84° 21% - - 40° 85.1° 59.9° - - -
5/23 10:10am 290 3 G 7 83° 21% - - 40° 84.1° 59.9° - - -
5/23 10:00am 287 2 G 5 83° 21% - - 39° 83.7° 59.9° - - -
5/23 9:50am 284 3 G 4 82° 24% - - 41° 82.1° 59.9° - - -
5/23 9:40am 281 2 G 5 81° 25% - - 42° 81.5° 59.9° - - -
5/23 9:30am 269 2 G 3 80° 26% - - 42° 81° 59.9° - - -
5/23 9:20am 283 2 G 4 79° 26% - - 41° 80.3° 59.9° - - -
5/23 9:10am 271 2 G 3 78° 26% - - 41° 78.5° 59.9° - - -
5/23 9:00am 280 2 G 3 77° 28% - - 41° 77.6° 59.9° - - -
5/23 8:50am 276 2 G 3 76° 29% - - 42° 77.3° 59.9° - - -
5/23 8:40am 292 2 G 3 76° 30% - - 43° 77.3° 59.9° - - -
5/23 8:30am 303 1 G 2 77° 31% - - 43° 77.3° 59.9° - - -
5/23 8:20am 53 1 G 2 75° 32% - - 44° 76° 59.9° - - -
5/23 8:10am 305 0 G 2 73° 30% - - 40° 74.8° 59.9° - - -
5/23 8:00am 24 0 G 2 73° 30% - - 40° 74.2° 59.9° - - -
5/23 7:50am 70 1 G 2 71° 34% - - 42° 74.2° 59.9° - - -
5/23 7:40am 271 0 G 1 72° 29% - - 38° 74.2° 59.9° - - -
5/23 7:30am 280 0 G 1 71° 29% - - 37° 74.2° 59.9° - - -
5/23 7:20am 275 1 G 2 70° 28% - - 36° 74.2° 59.9° - - -
5/23 7:10am 235 0 G 1 69° 30% - - 37° 74.2° 59.9° - - -
5/23 7:00am 258 0 G 1 71° 30% - - 38° 74.2° 59.9° - - -
5/23 6:50am 278 0 G 1 72° 28% - - 38° 74.2° 59.9° - - -
5/23 6:40am 0 0 G 0 73° 26% - - 36° 74.2° 59.9° - - -
5/23 6:30am 0 0 G 0 68° 30% - - 36° 70.1° 59.9° - - -
5/23 6:20am 49 0 G 1 66° 31% - - 35° 68.1° 59.9° - - -
5/23 6:10am 121 0 G 1 66° 30% - - 34° 68.1° 59.9° - - -
5/23 6:00am 153 0 G 1 66° 32% - - 35° 68.1° 59.9° - - -